Time;durP1;ratioP1;P1;durP2;ratioP2;P2;SDS_P1;SDS_P2;PMS_P1;PMS_P2;Temp;Humidity;BMP_temperature;BMP_pressure;BME280_temperature;BME280_humidity;BME280_pressure;Samples;Min_cycle;Max_cycle;Signal;HPM_P1;HPM_P2
2021/12/28 00:00:22;;;;;;;6.43;2.95;;;;;;;-13.80;90.29;101232.84;5071920;28;20079;-82
2021/12/28 00:02:49;;;;;;;13.75;6.47;;;;;;;-13.76;90.23;101234.31;5053900;28;20040;-81
2021/12/28 00:05:16;;;;;;;15.00;6.43;;;;;;;-13.71;89.94;101236.59;5072579;28;20036;-81
2021/12/28 00:07:42;;;;;;;12.85;6.15;;;;;;;-13.67;90.25;101239.88;5068702;28;20033;-81
2021/12/28 00:10:11;;;;;;;13.77;6.95;;;;;;;-13.65;90.79;101236.19;5053638;28;20507;-82
2021/12/28 00:12:38;;;;;;;13.48;6.22;;;;;;;-13.61;90.40;101236.78;5071390;28;20499;-83
2021/12/28 00:15:18;;;;;;;12.35;6.30;;;;;;;-13.60;89.98;101239.31;5053599;28;20487;-83
2021/12/28 00:18:00;;;;;;;15.02;6.70;;;;;;;-13.57;90.14;101235.63;5055439;28;20140;-83
2021/12/28 00:20:37;;;;;;;12.82;6.28;;;;;;;-13.55;90.32;101238.97;5066024;28;20033;-83
2021/12/28 00:23:07;;;;;;;14.45;6.85;;;;;;;-13.52;90.24;101244.91;5049054;28;20037;-83
2021/12/28 00:25:33;;;;;;;11.50;6.72;;;;;;;-13.51;90.39;101240.47;5036576;28;20082;-83
2021/12/28 00:27:59;;;;;;;14.27;6.63;;;;;;;-13.48;90.21;101246.34;5077527;28;20109;-82
2021/12/28 00:30:25;;;;;;;17.77;7.22;;;;;;;-13.44;90.41;101252.25;5071503;28;20503;-83
2021/12/28 00:32:56;;;;;;;14.15;6.95;;;;;;;-13.43;90.41;101240.72;5071150;28;20077;-81
2021/12/28 00:35:24;;;;;;;17.48;7.65;;;;;;;-13.41;90.13;101242.31;5052894;28;20490;-82
2021/12/28 00:37:50;;;;;;;13.50;7.23;;;;;;;-13.38;90.30;101243.88;5052958;28;20043;-82
2021/12/28 00:40:17;;;;;;;15.80;7.75;;;;;;;-13.35;90.12;101243.66;5086573;28;20356;-82
2021/12/28 00:42:43;;;;;;;13.48;6.35;;;;;;;-13.33;90.30;101249.69;5071158;28;20058;-81
2021/12/28 00:45:09;;;;;;;13.52;6.65;;;;;;;-13.33;89.87;101243.56;5053416;28;20067;-82
2021/12/28 00:47:34;;;;;;;13.48;7.50;;;;;;;-13.32;89.91;101253.16;5069649;28;20036;-82
2021/12/28 00:50:00;;;;;;;17.55;7.65;;;;;;;-13.30;90.09;101244.16;5067581;28;20036;-83
2021/12/28 00:52:26;;;;;;;12.73;7.10;;;;;;;-13.27;90.42;101251.84;5053483;28;20055;-83
2021/12/28 00:54:55;;;;;;;13.95;6.88;;;;;;;-13.24;90.08;101259.53;5053131;28;20155;-83
2021/12/28 00:57:20;;;;;;;12.33;6.60;;;;;;;-13.24;90.26;101251.63;5070661;28;20044;-83
2021/12/28 00:59:46;;;;;;;14.07;7.07;;;;;;;-13.23;90.28;101258.59;5052322;28;20089;-82
2021/12/28 01:02:11;;;;;;;14.65;7.70;;;;;;;-13.22;89.73;101260.28;5087391;28;20517;-84
2021/12/28 01:04:37;;;;;;;13.90;7.25;;;;;;;-13.23;89.97;101258.59;5069190;28;20063;-82
2021/12/28 01:07:04;;;;;;;14.25;7.32;;;;;;;-13.24;90.32;101264.81;5036250;28;20067;-81
2021/12/28 01:09:31;;;;;;;14.48;8.15;;;;;;;-13.22;90.38;101255.00;5033982;28;20042;-82
2021/12/28 01:12:04;;;;;;;17.10;7.50;;;;;;;-13.20;90.33;101260.16;5068659;28;20067;-83
2021/12/28 01:14:30;;;;;;;17.10;7.20;;;;;;;-13.21;90.47;101256.66;5075557;28;20561;-81
2021/12/28 01:16:55;;;;;;;13.32;7.28;;;;;;;-13.21;89.87;101261.94;5070938;28;20131;-83
2021/12/28 01:19:21;;;;;;;14.13;7.15;;;;;;;-13.20;90.10;101265.44;5052580;28;20060;-83
2021/12/28 01:21:47;;;;;;;14.52;6.80;;;;;;;-13.19;89.78;101267.13;5070653;28;20394;-82
2021/12/28 01:24:13;;;;;;;13.82;7.00;;;;;;;-13.19;90.22;101257.44;5069138;28;20086;-83
2021/12/28 01:26:39;;;;;;;11.38;6.80;;;;;;;-13.15;90.01;101263.28;5073231;28;20087;-81
2021/12/28 01:29:04;;;;;;;15.73;7.70;;;;;;;-13.16;90.01;101259.81;5071456;28;20067;-81
2021/12/28 01:31:30;;;;;;;15.13;7.35;;;;;;;-13.15;90.05;101264.13;5052367;28;20044;-81
2021/12/28 01:33:56;;;;;;;12.18;6.63;;;;;;;-13.16;90.21;101259.81;5052868;28;20043;-81
2021/12/28 01:36:22;;;;;;;15.35;7.93;;;;;;;-13.16;90.40;101256.31;5051945;28;20101;-82
2021/12/28 01:38:48;;;;;;;17.30;8.35;;;;;;;-13.16;90.16;101262.44;5052214;28;20033;-82
2021/12/28 01:41:14;;;;;;;17.45;9.10;;;;;;;-13.14;89.95;101257.03;5069239;28;20036;-81
2021/12/28 01:43:42;;;;;;;16.65;8.73;;;;;;;-13.13;89.99;101262.22;5053640;28;20063;-82
2021/12/28 01:46:09;;;;;;;14.20;7.95;;;;;;;-13.11;90.61;101265.56;5053511;28;20040;-82
2021/12/28 01:48:41;;;;;;;19.05;8.95;;;;;;;-13.08;90.37;101267.16;5052161;28;20463;-81
2021/12/28 01:51:11;;;;;;;14.75;8.23;;;;;;;-13.08;90.10;101269.78;5069066;28;20150;-81
2021/12/28 01:53:38;;;;;;;15.65;8.85;;;;;;;-13.03;90.03;101267.63;5069529;28;20139;-82
2021/12/28 01:56:07;;;;;;;14.43;8.20;;;;;;;-13.01;90.08;101273.69;5054286;28;20363;-80
2021/12/28 01:58:34;;;;;;;17.17;9.10;;;;;;;-12.97;90.71;101276.94;5068671;28;20037;-82
2021/12/28 02:01:00;;;;;;;15.68;7.88;;;;;;;-12.97;90.62;101274.28;5067346;28;20470;-81
2021/12/28 02:03:27;;;;;;;17.15;7.43;;;;;;;-12.95;90.35;101278.50;5067524;28;20058;-81
2021/12/28 02:05:53;;;;;;;17.95;8.57;;;;;;;-12.93;90.49;101275.72;5070278;28;20612;-81
2021/12/28 02:08:23;;;;;;;16.85;8.15;;;;;;;-12.90;90.01;101283.41;5051762;28;20486;-81
2021/12/28 02:10:52;;;;;;;18.25;9.02;;;;;;;-12.89;90.26;101279.81;5053402;28;20037;-82
2021/12/28 02:13:18;;;;;;;17.70;9.43;;;;;;;-12.86;90.87;101287.50;5070684;28;20040;-81
2021/12/28 02:15:44;;;;;;;16.05;9.20;;;;;;;-12.86;90.45;101292.81;5054069;28;20036;-81
2021/12/28 02:18:11;;;;;;;20.42;10.80;;;;;;;-12.84;90.77;101291.75;5069036;28;20055;-82
2021/12/28 02:20:38;;;;;;;19.98;10.45;;;;;;;-12.82;90.65;101291.63;5069294;28;20934;-81
2021/12/28 02:23:04;;;;;;;20.38;11.27;;;;;;;-12.80;90.47;101287.06;5054788;28;20037;-80
2021/12/28 02:25:31;;;;;;;17.35;11.35;;;;;;;-12.78;90.71;101298.38;5069286;28;20583;-80
2021/12/28 02:27:58;;;;;;;19.83;11.10;;;;;;;-12.76;90.92;101291.16;5070345;28;20040;-80
2021/12/28 02:30:26;;;;;;;18.15;10.90;;;;;;;-12.73;90.92;101290.94;5086821;28;20051;-81
2021/12/28 02:32:52;;;;;;;22.38;11.90;;;;;;;-12.71;90.42;101302.22;5051869;28;20033;-80
2021/12/28 02:35:21;;;;;;;21.70;10.88;;;;;;;-12.68;90.48;101295.84;5069424;28;20055;-80
2021/12/28 02:37:47;;;;;;;23.10;12.27;;;;;;;-12.67;90.27;101297.53;5051923;28;20037;-80
2021/12/28 02:40:16;;;;;;;19.20;10.85;;;;;;;-12.65;90.96;101300.94;5055583;28;20043;-80
2021/12/28 02:42:42;;;;;;;19.30;11.53;;;;;;;-12.62;90.28;101300.69;5051251;28;20036;-81
2021/12/28 02:45:13;;;;;;;23.50;10.88;;;;;;;-12.60;91.26;101304.91;5069729;28;20063;-81
2021/12/28 02:47:42;;;;;;;21.67;10.25;;;;;;;-12.60;90.81;101304.06;5071964;28;20046;-80
2021/12/28 02:50:14;;;;;;;19.17;9.98;;;;;;;-12.59;91.02;101305.75;5069501;28;20028;-79
2021/12/28 02:52:40;;;;;;;17.25;9.63;;;;;;;-12.57;91.22;101307.31;5053155;28;20063;-80
2021/12/28 02:55:09;;;;;;;19.92;10.63;;;;;;;-12.55;90.81;101310.69;5051869;28;20566;-81
2021/12/28 02:57:35;;;;;;;19.27;11.18;;;;;;;-12.54;90.94;101304.44;5051468;28;20077;-80
2021/12/28 03:00:02;;;;;;;20.08;10.23;;;;;;;-12.51;91.16;101308.66;5067471;28;20418;-81
2021/12/28 03:02:28;;;;;;;19.63;11.02;;;;;;;-12.49;90.66;101314.69;5070518;28;20090;-80
2021/12/28 03:04:54;;;;;;;18.45;9.60;;;;;;;-12.46;91.24;101310.97;5073181;28;20459;-80
2021/12/28 03:07:19;;;;;;;22.60;10.70;;;;;;;-12.44;91.40;101315.16;5074130;28;20064;-80
2021/12/28 03:09:45;;;;;;;18.73;8.77;;;;;;;-12.42;91.29;101315.06;5055659;28;20123;-80
2021/12/28 03:12:11;;;;;;;18.15;9.40;;;;;;;-12.42;91.42;101312.41;5064247;28;20081;-79
2021/12/28 03:14:36;;;;;;;16.95;9.35;;;;;;;-12.39;91.38;101312.16;5072449;28;20131;-79
2021/12/28 03:17:04;;;;;;;22.20;10.10;;;;;;;-12.36;91.27;101312.78;5076286;28;20419;-79
2021/12/28 03:19:29;;;;;;;18.48;10.10;;;;;;;-12.33;91.28;101314.34;5073020;28;20041;-80
2021/12/28 03:21:57;;;;;;;16.77;9.50;;;;;;;-12.29;91.66;101319.28;5085802;28;20094;-80
2021/12/28 03:24:23;;;;;;;17.23;9.07;;;;;;;-12.25;90.87;101314.59;5054888;28;20079;-79
2021/12/28 03:26:48;;;;;;;18.92;10.30;;;;;;;-12.21;91.12;101316.03;5091599;28;20095;-79
2021/12/28 03:29:14;;;;;;;16.70;8.80;;;;;;;-12.20;91.09;101328.31;5074036;28;20032;-80
2021/12/28 03:31:40;;;;;;;17.48;9.70;;;;;;;-12.17;91.05;101320.97;5085368;28;20506;-81
2021/12/28 03:34:05;;;;;;;19.08;10.13;;;;;;;-12.11;91.18;101334.72;5056648;28;20063;-80
2021/12/28 03:36:32;;;;;;;21.98;10.93;;;;;;;-12.08;91.55;101329.19;5074909;28;20418;-80
2021/12/28 03:38:58;;;;;;;22.55;10.70;;;;;;;-12.04;91.47;101320.88;5071927;28;20036;-80
2021/12/28 03:41:25;;;;;;;19.58;9.85;;;;;;;-12.00;91.03;101321.47;5090530;28;20040;-80
2021/12/28 03:43:52;;;;;;;17.60;9.32;;;;;;;-11.97;91.90;101326.56;5074474;28;20521;-80
2021/12/28 03:46:19;;;;;;;20.17;9.70;;;;;;;-11.94;91.16;101324.50;5089767;28;20036;-79
2021/12/28 03:48:45;;;;;;;21.45;10.10;;;;;;;-11.92;91.75;101332.31;5081697;28;20028;-80
2021/12/28 03:51:10;;;;;;;20.88;10.25;;;;;;;-11.90;91.63;101319.81;5074183;28;20044;-78
2021/12/28 03:53:36;;;;;;;24.63;9.85;;;;;;;-11.87;91.58;101316.91;5077633;28;20036;-80
2021/12/28 03:56:04;;;;;;;19.30;9.52;;;;;;;-11.86;91.65;101329.19;5071825;28;20044;-81
2021/12/28 03:58:30;;;;;;;18.75;10.13;;;;;;;-11.85;91.52;101328.22;5072447;28;20044;-81
2021/12/28 04:00:57;;;;;;;21.85;9.98;;;;;;;-11.81;91.14;101331.47;5057051;28;20068;-81
2021/12/28 04:03:22;;;;;;;21.70;10.30;;;;;;;-11.81;91.24;101329.66;5064079;28;20064;-81
2021/12/28 04:05:48;;;;;;;23.23;9.57;;;;;;;-11.78;91.88;101332.06;5061479;28;20037;-82
2021/12/28 04:08:22;;;;;;;22.02;9.88;;;;;;;-11.75;91.56;101333.63;5054707;28;20036;-81
2021/12/28 04:10:56;;;;;;;21.02;10.07;;;;;;;-11.76;91.14;101339.88;5084928;28;20036;-81
2021/12/28 04:13:22;;;;;;;19.50;9.93;;;;;;;-11.78;91.18;101340.00;5074795;28;20036;-81
2021/12/28 04:15:48;;;;;;;23.60;9.82;;;;;;;-11.79;91.63;101338.34;5055906;28;20037;-80
2021/12/28 04:18:15;;;;;;;23.33;9.82;;;;;;;-11.80;91.74;101338.44;5077248;28;20071;-79
2021/12/28 04:20:40;;;;;;;21.42;9.50;;;;;;;-11.80;91.31;101333.16;5059109;28;20051;-79
2021/12/28 04:23:06;;;;;;;20.42;9.77;;;;;;;-11.79;91.80;101337.50;5057291;28;20402;-79
2021/12/28 04:25:33;;;;;;;21.88;9.43;;;;;;;-11.79;91.78;101334.88;5084930;28;20044;-78
2021/12/28 04:27:59;;;;;;;23.58;9.88;;;;;;;-11.77;91.83;101333.75;5071574;28;20043;-79
2021/12/28 04:30:24;;;;;;;22.48;9.73;;;;;;;-11.75;91.07;101329.16;5084056;28;20036;-79
2021/12/28 04:32:50;;;;;;;26.27;9.57;;;;;;;-11.72;91.28;101322.78;5065118;28;20060;-77
2021/12/28 04:35:16;;;;;;;20.08;9.20;;;;;;;-11.70;91.23;101323.50;5074046;28;20036;-81
2021/12/28 04:37:43;;;;;;;24.20;10.68;;;;;;;-11.68;91.24;101316.28;5053852;28;20045;-81
2021/12/28 04:40:11;;;;;;;23.00;9.05;;;;;;;-11.65;91.02;101313.38;5098385;28;20051;-81
2021/12/28 04:42:37;;;;;;;20.27;9.75;;;;;;;-11.64;91.53;101304.47;5079299;28;20450;-80
2021/12/28 04:45:06;;;;;;;25.48;10.10;;;;;;;-11.61;91.13;101309.56;5090409;28;20040;-80
2021/12/28 04:47:32;;;;;;;23.92;10.70;;;;;;;-11.58;91.32;101310.16;5055308;28;20063;-82
2021/12/28 04:49:58;;;;;;;25.85;10.75;;;;;;;-11.55;91.46;101309.06;5065638;28;20068;-81
2021/12/28 04:52:24;;;;;;;22.38;10.35;;;;;;;-11.53;91.07;101312.41;5077840;28;20036;-81
2021/12/28 04:54:50;;;;;;;27.73;10.65;;;;;;;-11.48;91.63;101309.41;5073295;28;20440;-79
2021/12/28 04:57:15;;;;;;;28.52;12.05;;;;;;;-11.45;91.14;101310.03;5057387;28;20092;-80
2021/12/28 04:59:41;;;;;;;23.02;10.90;;;;;;;-11.41;91.15;101306.16;5065199;28;20040;-80
2021/12/28 05:02:07;;;;;;;27.42;11.32;;;;;;;-11.38;91.33;101311.19;5082362;28;20033;-81
2021/12/28 05:04:33;;;;;;;22.75;11.18;;;;;;;-11.37;91.13;101307.59;5060492;28;20105;-80
2021/12/28 05:06:59;;;;;;;23.15;10.18;;;;;;;-11.33;91.27;101302.88;5054960;28;20410;-81
2021/12/28 05:09:24;;;;;;;23.98;10.55;;;;;;;-11.31;91.40;101301.78;5069889;28;20144;-81
2021/12/28 05:11:50;;;;;;;25.05;9.25;;;;;;;-11.29;91.37;101299.84;5090361;28;20040;-82
2021/12/28 05:14:17;;;;;;;22.08;10.13;;;;;;;-11.27;91.44;101308.53;5080471;28;20541;-81
2021/12/28 05:16:43;;;;;;;24.23;10.77;;;;;;;-11.23;91.16;101308.28;5070659;28;20047;-81
2021/12/28 05:19:09;;;;;;;25.08;10.68;;;;;;;-11.22;91.74;101310.81;5089247;28;20044;-81
2021/12/28 05:21:35;;;;;;;25.98;11.18;;;;;;;-11.18;91.26;101316.69;5075664;28;20040;-81
2021/12/28 05:24:01;;;;;;;28.45;11.23;;;;;;;-11.17;91.52;101318.38;5076513;28;20027;-81
2021/12/28 05:26:27;;;;;;;21.33;9.60;;;;;;;-11.15;91.86;101330.53;5090930;28;20422;-82
2021/12/28 05:28:53;;;;;;;24.67;9.90;;;;;;;-11.12;91.35;101318.84;5091780;28;20051;-82
2021/12/28 05:31:18;;;;;;;22.58;9.65;;;;;;;-11.10;91.64;101330.19;5073910;28;20132;-81
2021/12/28 05:33:44;;;;;;;21.77;8.40;;;;;;;-11.08;91.96;101338.84;5071505;28;20044;-82
2021/12/28 05:36:10;;;;;;;29.67;10.60;;;;;;;-11.06;91.48;101336.91;5052338;28;20036;-81
2021/12/28 05:38:36;;;;;;;24.83;9.98;;;;;;;-11.05;91.77;101338.59;5069199;28;20105;-82
2021/12/28 05:41:02;;;;;;;31.83;10.93;;;;;;;-11.04;91.32;101340.25;5043505;28;20050;-82
2021/12/28 05:43:28;;;;;;;32.67;10.23;;;;;;;-11.04;91.65;101342.91;5072325;28;20078;-82
2021/12/28 05:45:54;;;;;;;27.65;10.07;;;;;;;-11.03;92.23;101348.09;5062576;28;20060;-81
2021/12/28 05:48:19;;;;;;;29.58;11.10;;;;;;;-11.00;91.90;101347.00;5077580;28;20105;-82
2021/12/28 05:50:45;;;;;;;30.90;10.38;;;;;;;-10.98;91.66;101353.00;5074956;28;20032;-82
2021/12/28 05:53:10;;;;;;;24.95;9.82;;;;;;;-10.95;92.20;101358.06;5074157;28;20570;-82
2021/12/28 05:55:36;;;;;;;27.38;11.07;;;;;;;-10.95;91.68;101355.41;5057452;28;20046;-81
2021/12/28 05:58:02;;;;;;;22.73;9.27;;;;;;;-10.95;92.34;101358.06;5076955;28;20067;-81
2021/12/28 06:00:28;;;;;;;23.17;9.90;;;;;;;-10.91;91.88;101359.50;5045045;28;20398;-80
2021/12/28 06:02:57;;;;;;;23.75;9.65;;;;;;;-10.92;91.91;101355.19;5060876;28;20039;-81
2021/12/28 06:05:24;;;;;;;20.38;10.15;;;;;;;-10.91;92.38;101367.47;5095340;28;20072;-81
2021/12/28 06:07:49;;;;;;;21.25;9.77;;;;;;;-10.91;92.57;101367.47;5095156;28;20126;-80
2021/12/28 06:10:16;;;;;;;20.08;9.85;;;;;;;-10.89;92.43;101362.88;5078227;28;20143;-80
2021/12/28 06:12:42;;;;;;;21.95;9.30;;;;;;;-10.88;92.21;101364.56;5075441;28;20037;-81
2021/12/28 06:15:08;;;;;;;21.42;9.93;;;;;;;-10.88;91.78;101358.41;5080147;28;20031;-81
2021/12/28 06:17:35;;;;;;;27.63;10.52;;;;;;;-10.87;91.92;101363.59;5077381;28;20052;-81
2021/12/28 06:20:00;;;;;;;24.98;11.05;;;;;;;-10.86;92.66;101377.69;5076825;28;20041;-80
2021/12/28 06:22:26;;;;;;;25.23;11.23;;;;;;;-10.86;92.00;101380.34;5057302;28;20086;-80
2021/12/28 06:24:52;;;;;;;27.48;11.82;;;;;;;-10.88;92.48;101385.75;5078810;28;20529;-80
2021/12/28 06:27:18;;;;;;;30.70;12.07;;;;;;;-10.89;92.07;101385.88;5076007;28;20090;-80
2021/12/28 06:29:43;;;;;;;28.40;11.73;;;;;;;-10.90;92.30;101398.31;5065361;28;20037;-81
2021/12/28 06:32:09;;;;;;;35.53;14.40;;;;;;;-10.90;92.31;101390.34;5055839;28;20085;-81
2021/12/28 06:34:35;;;;;;;35.60;16.15;;;;;;;-10.89;91.95;101404.44;5059047;28;20036;-82
2021/12/28 06:37:00;;;;;;;36.78;15.30;;;;;;;-10.90;91.97;101402.75;5074259;28;20559;-82
2021/12/28 06:39:26;;;;;;;32.83;16.13;;;;;;;-10.88;92.30;101408.78;5076454;28;20070;-81
2021/12/28 06:41:52;;;;;;;32.70;14.93;;;;;;;-10.88;93.01;101412.25;5079453;28;20070;-81
2021/12/28 06:44:17;;;;;;;33.45;15.63;;;;;;;-10.90;92.61;101406.25;5079973;28;20032;-81
2021/12/28 06:46:43;;;;;;;34.45;15.15;;;;;;;-10.90;92.16;101411.56;5062869;28;20454;-80
2021/12/28 06:49:08;;;;;;;29.27;14.38;;;;;;;-10.91;93.00;101416.97;5065332;28;20041;-81
2021/12/28 06:51:34;;;;;;;33.92;15.50;;;;;;;-10.91;92.41;101409.88;5063939;28;20052;-81
2021/12/28 06:54:00;;;;;;;35.13;16.70;;;;;;;-10.89;92.68;101413.22;5062812;28;20044;-80
2021/12/28 06:56:25;;;;;;;33.13;14.10;;;;;;;-10.87;92.51;101415.75;5064669;28;20123;-82
2021/12/28 06:58:51;;;;;;;31.92;14.65;;;;;;;-10.86;92.57;101415.63;5082776;28;20032;-80
2021/12/28 07:01:17;;;;;;;31.50;14.80;;;;;;;-10.83;92.29;101418.03;5064767;28;20055;-79
2021/12/28 07:03:42;;;;;;;35.38;15.60;;;;;;;-10.80;92.73;101423.06;5080055;28;20123;-80
2021/12/28 07:06:08;;;;;;;34.15;14.68;;;;;;;-10.77;92.56;101424.63;5059733;28;20033;-80
2021/12/28 07:08:35;;;;;;;26.60;13.27;;;;;;;-10.76;92.86;101427.19;5070262;28;20047;-80
2021/12/28 07:11:00;;;;;;;32.55;13.27;;;;;;;-10.73;92.06;101426.09;5097697;28;20036;-81
2021/12/28 07:13:26;;;;;;;31.70;12.70;;;;;;;-10.71;92.83;101425.00;5094401;28;20615;-80
2021/12/28 07:15:52;;;;;;;27.27;11.43;;;;;;;-10.68;92.64;101426.56;5077985;28;20036;-80
2021/12/28 07:18:18;;;;;;;29.65;11.95;;;;;;;-10.65;92.06;101424.50;5087942;28;20044;-82
2021/12/28 07:20:44;;;;;;;26.95;10.57;;;;;;;-10.60;92.81;101433.88;5071166;28;20036;-82
2021/12/28 07:23:09;;;;;;;28.80;11.98;;;;;;;-10.55;92.72;101431.72;5072111;28;20037;-81
2021/12/28 07:25:35;;;;;;;34.00;11.35;;;;;;;-10.50;92.63;101433.00;5037486;28;20032;-82
2021/12/28 07:28:02;;;;;;;23.27;11.00;;;;;;;-10.47;92.67;101430.09;5062919;28;20060;-81
2021/12/28 07:30:27;;;;;;;25.80;10.43;;;;;;;-10.44;93.17;101429.00;5054603;28;20044;-81
2021/12/28 07:32:53;;;;;;;27.42;11.38;;;;;;;-10.40;92.33;101430.44;5054940;28;20040;-80
2021/12/28 07:35:19;;;;;;;25.80;9.93;;;;;;;-10.35;92.07;101444.16;5071890;28;20048;-81
2021/12/28 07:37:44;;;;;;;21.83;9.57;;;;;;;-10.31;92.80;101429.69;5072175;28;20449;-81
2021/12/28 07:40:10;;;;;;;23.05;9.60;;;;;;;-10.27;92.62;101431.09;5072388;28;20041;-82
2021/12/28 07:42:36;;;;;;;23.13;10.18;;;;;;;-10.21;92.82;101438.56;5054063;28;20174;-80
2021/12/28 07:45:06;;;;;;;22.50;9.60;;;;;;;-10.18;93.05;101427.66;5053875;28;20032;-81
2021/12/28 07:47:32;;;;;;;27.38;10.35;;;;;;;-10.13;93.23;101421.97;5053313;28;20036;-80
2021/12/28 07:49:57;;;;;;;26.30;9.40;;;;;;;-10.08;92.21;101447.13;5071632;28;20410;-80
2021/12/28 07:52:23;;;;;;;23.77;9.25;;;;;;;-10.02;92.21;101439.66;5071470;28;20043;-82
2021/12/28 07:54:49;;;;;;;24.20;9.82;;;;;;;-9.98;93.17;101451.69;5070967;28;20036;-80
2021/12/28 07:57:14;;;;;;;24.08;9.75;;;;;;;-9.94;93.14;101446.00;5071445;28;20036;-80
2021/12/28 07:59:40;;;;;;;21.50;9.55;;;;;;;-9.90;93.29;101449.22;5071438;28;20541;-80
2021/12/28 08:02:07;;;;;;;24.98;10.70;;;;;;;-9.88;93.28;101442.00;5071644;28;20051;-81
2021/12/28 08:04:35;;;;;;;24.52;10.38;;;;;;;-9.85;92.88;101444.38;5071454;28;20067;-80
2021/12/28 08:07:01;;;;;;;22.85;10.43;;;;;;;-9.82;92.73;101444.13;5071707;28;20028;-81
2021/12/28 08:09:27;;;;;;;23.50;10.23;;;;;;;-9.81;93.53;101437.84;5036822;28;20043;-81
2021/12/28 08:11:53;;;;;;;22.15;10.50;;;;;;;-9.79;92.68;101452.66;5086692;28;20067;-81
2021/12/28 08:14:18;;;;;;;24.25;11.20;;;;;;;-9.75;92.98;101439.97;5053758;28;20499;-80
2021/12/28 08:16:45;;;;;;;24.00;10.25;;;;;;;-9.73;93.16;101446.00;5071110;28;20502;-80
2021/12/28 08:19:10;;;;;;;21.75;10.85;;;;;;;-9.70;93.38;101443.09;5070926;28;20045;-82
2021/12/28 08:21:36;;;;;;;21.63;9.93;;;;;;;-9.66;93.42;101444.50;5071047;28;20050;-81
2021/12/28 08:24:02;;;;;;;19.10;9.70;;;;;;;-9.60;92.74;101430.69;5053218;28;20545;-82
2021/12/28 08:26:28;;;;;;;22.65;10.50;;;;;;;-9.57;92.88;101435.75;5087916;28;20076;-82
2021/12/28 08:28:54;;;;;;;19.92;9.65;;;;;;;-9.52;93.10;101443.34;5081704;28;20063;-81
2021/12/28 08:31:20;;;;;;;25.30;10.57;;;;;;;-9.47;92.92;101441.97;5056938;28;20553;-81
2021/12/28 08:33:45;;;;;;;25.83;11.90;;;;;;;-9.43;93.66;101438.06;5092148;28;20054;-82
2021/12/28 08:36:11;;;;;;;23.30;10.65;;;;;;;-9.38;93.38;101445.63;5088945;28;20094;-84
2021/12/28 08:38:38;;;;;;;23.13;11.30;;;;;;;-9.32;93.63;101444.28;5071148;28;20490;-83
2021/12/28 08:41:04;;;;;;;30.40;12.25;;;;;;;-9.25;93.30;101456.88;5053630;28;20067;-84
2021/12/28 08:43:29;;;;;;;22.65;11.75;;;;;;;-9.19;93.28;101451.06;5071514;28;20068;-83
2021/12/28 08:45:55;;;;;;;26.55;12.75;;;;;;;-9.16;92.53;101442.81;5056493;28;20062;-83
2021/12/28 08:48:20;;;;;;;24.85;12.00;;;;;;;-9.13;93.68;101433.72;5079556;28;20048;-83
2021/12/28 08:50:46;;;;;;;24.20;13.13;;;;;;;-9.07;93.75;101448.28;5071681;28;20043;-85
2021/12/28 08:53:12;;;;;;;24.92;12.05;;;;;;;-9.05;93.63;101456.97;5070585;28;20033;-83
2021/12/28 08:55:39;;;;;;;25.02;13.20;;;;;;;-9.02;93.00;101456.69;5054672;28;20179;-85
2021/12/28 08:58:05;;;;;;;26.52;12.68;;;;;;;-8.99;93.25;101453.78;5074195;28;20040;-84
2021/12/28 09:00:32;;;;;;;25.88;11.88;;;;;;;-8.95;92.98;101457.84;5083558;28;20044;-83
2021/12/28 09:02:58;;;;;;;23.20;12.40;;;;;;;-8.90;93.53;101463.59;5073115;28;20490;-84
2021/12/28 09:05:25;;;;;;;29.95;12.45;;;;;;;-8.85;93.37;101462.25;5088775;28;20075;-81
2021/12/28 09:07:51;;;;;;;30.35;12.35;;;;;;;-8.85;93.41;101451.59;5071426;28;20052;-81
2021/12/28 09:10:17;;;;;;;24.90;12.30;;;;;;;-8.82;93.75;101456.66;5070748;28;20055;-82
2021/12/28 09:12:43;;;;;;;27.50;11.10;;;;;;;-8.76;92.96;101454.41;5050439;28;20458;-87
2021/12/28 09:15:12;;;;;;;28.23;12.40;;;;;;;-8.73;92.82;101446.16;5057340;28;20466;-84
2021/12/28 09:17:38;;;;;;;21.67;10.18;;;;;;;-8.70;92.82;101446.72;5074237;28;20139;-83
2021/12/28 09:20:08;;;;;;;25.73;11.55;;;;;;;-8.66;93.79;101453.47;5073538;28;20047;-83
2021/12/28 09:22:34;;;;;;;19.77;10.23;;;;;;;-8.61;92.81;101456.56;5065309;28;20123;-82
2021/12/28 09:25:00;;;;;;;17.30;8.80;;;;;;;-8.59;93.38;101457.25;5086976;28;20136;-79
2021/12/28 09:27:25;;;;;;;17.67;8.57;;;;;;;-8.57;92.55;101451.78;5072178;28;20064;-78
2021/12/28 09:29:51;;;;;;;16.50;8.25;;;;;;;-8.55;92.87;101452.50;5053593;28;20498;-80
2021/12/28 09:32:18;;;;;;;20.13;9.02;;;;;;;-8.54;93.37;101452.34;5071472;28;20036;-81
2021/12/28 09:34:45;;;;;;;17.83;8.70;;;;;;;-8.51;93.24;101452.06;5064197;28;20097;-77
2021/12/28 09:37:11;;;;;;;14.52;8.63;;;;;;;-8.46;92.75;101450.84;5074770;28;20071;-79
2021/12/28 09:39:37;;;;;;;15.63;8.80;;;;;;;-8.39;93.60;101451.94;5054765;28;20498;-77
2021/12/28 09:42:03;;;;;;;18.83;9.13;;;;;;;-8.33;93.17;101448.69;5076912;28;20545;-76
2021/12/28 09:44:31;;;;;;;21.98;10.13;;;;;;;-8.32;93.51;101448.59;5052976;28;20040;-77
2021/12/28 09:46:58;;;;;;;20.25;9.52;;;;;;;-8.29;93.03;101450.97;5065821;28;20150;-76
2021/12/28 09:49:25;;;;;;;18.67;9.80;;;;;;;-8.24;93.55;101448.72;5069340;28;20146;-76
2021/12/28 09:51:51;;;;;;;22.05;10.52;;;;;;;-8.18;93.63;101451.78;5062665;28;20036;-77
2021/12/28 09:54:17;;;;;;;23.67;11.80;;;;;;;-8.16;92.94;101450.66;5070964;28;20028;-78
2021/12/28 09:56:42;;;;;;;34.72;15.43;;;;;;;-8.18;92.97;101455.28;5070396;28;20036;-78
2021/12/28 09:59:08;;;;;;;35.72;16.08;;;;;;;-8.19;93.25;101450.94;5070957;28;20044;-77
2021/12/28 10:01:34;;;;;;;36.63;18.90;;;;;;;-8.21;92.60;101437.78;5069225;28;20498;-77
2021/12/28 10:04:01;;;;;;;45.65;19.70;;;;;;;-8.25;92.55;101447.03;5053139;28;20044;-76
2021/12/28 10:06:28;;;;;;;41.53;20.45;;;;;;;-8.23;93.06;101457.53;5052612;28;20542;-76
2021/12/28 10:09:07;;;;;;;49.15;21.80;;;;;;;-8.24;92.61;101446.06;5070927;28;20040;-80
2021/12/28 10:11:39;;;;;;;50.78;24.17;;;;;;;-8.24;92.85;101448.72;5070824;28;20040;-79
2021/12/28 10:14:10;;;;;;;36.50;17.92;;;;;;;-7.22;91.97;101430.31;5078058;28;20456;-79
2021/12/28 10:16:45;;;;;;;46.40;21.73;;;;;;;-6.02;91.08;101432.81;5076290;28;20090;-80
2021/12/28 10:19:33;;;;;;;53.53;23.70;;;;;;;-5.69;90.57;101433.88;5074482;28;20091;-82
2021/12/28 10:22:19;;;;;;;56.55;26.45;;;;;;;-5.98;90.44;101435.00;5057122;28;20040;-80
2021/12/28 10:24:46;;;;;;;37.58;18.60;;;;;;;-5.84;89.77;101430.91;5090337;28;20060;-80
2021/12/28 10:27:17;;;;;;;43.83;19.80;;;;;;;-4.36;89.36;101442.19;5074833;28;20037;-81
2021/12/28 10:29:43;;;;;;;58.50;26.67;;;;;;;-4.05;87.50;101437.06;5056542;28;20028;-81
2021/12/28 10:32:20;;;;;;;57.63;26.45;;;;;;;-4.53;86.93;101438.63;5074947;28;20040;-80
2021/12/28 10:34:54;;;;;;;60.08;28.08;;;;;;;-4.25;86.56;101440.03;5074585;28;20097;-79
2021/12/28 10:37:23;;;;;;;52.70;27.38;;;;;;;-4.40;84.16;101436.31;5076215;28;20036;-81
2021/12/28 10:39:51;;;;;;;51.63;25.23;;;;;;;-4.60;83.35;101435.78;5074257;28;20123;-80
2021/12/28 10:42:45;;;;;;;73.22;29.90;;;;;;;-4.10;82.55;101448.28;5056311;28;20045;-80
2021/12/28 10:45:17;;;;;;;57.83;25.40;;;;;;;-4.52;81.92;101442.97;5074134;28;20119;-81
2021/12/28 10:47:42;;;;;;;65.80;28.23;;;;;;;-4.27;82.95;101442.06;5074175;28;20036;-80
2021/12/28 10:50:22;;;;;;;59.83;28.90;;;;;;;-5.04;80.60;101432.41;5072981;28;20041;-80
2021/12/28 10:52:51;;;;;;;51.58;27.92;;;;;;;-5.68;81.14;101428.38;5073491;28;20468;-80
2021/12/28 10:55:18;;;;;;;;;;;;;;;-6.06;82.02;101434.94;5072731;28;20110;-82
2021/12/28 10:57:43;;;;;;;58.65;27.05;;;;;;;-6.34;82.52;101433.34;5089046;28;19920;-80
2021/12/28 11:00:25;;;;;;;59.97;27.35;;;;;;;-6.64;83.00;101434.50;5074567;28;20964;-80
2021/12/28 11:03:11;;;;;;;54.33;26.45;;;;;;;-6.88;83.13;101432.41;5073761;28;20611;-79
2021/12/28 11:05:37;;;;;;;57.30;23.65;;;;;;;-7.06;84.08;101443.03;5061592;28;20048;-81